createdAt,value
2019-05-14T00:01:04.056Z,6.71
2019-05-14T00:03:34.273Z,6.67
2019-05-14T00:06:04.615Z,6.63
2019-05-14T00:08:34.819Z,6.55
2019-05-14T00:11:05.058Z,6.60
2019-05-14T00:13:35.181Z,6.56
2019-05-14T00:16:06.204Z,6.46
2019-05-14T00:18:37.339Z,6.41
2019-05-14T00:21:07.559Z,6.34
2019-05-14T00:23:42.459Z,6.31
2019-05-14T00:26:13.308Z,6.32
2019-05-14T00:28:43.488Z,6.33
2019-05-14T00:31:14.574Z,6.25
2019-05-14T00:33:45.764Z,6.35
2019-05-14T00:36:16.727Z,6.17
2019-05-14T00:38:46.816Z,6.12
2019-05-14T00:41:17.170Z,6.05
2019-05-14T00:43:47.654Z,6.08
2019-05-14T00:46:17.839Z,6.00
2019-05-14T00:48:47.958Z,6.05
2019-05-14T00:51:18.080Z,5.99
2019-05-14T00:53:48.302Z,5.91
2019-05-14T00:56:21.645Z,5.93
2019-05-14T00:58:52.339Z,5.92
2019-05-14T01:01:23.292Z,5.92
2019-05-14T01:03:53.444Z,5.82
2019-05-14T01:06:26.516Z,5.82
2019-05-14T01:08:56.650Z,5.78
2019-05-14T01:11:26.774Z,5.76
2019-05-14T01:13:57.279Z,5.73
2019-05-14T01:16:27.748Z,5.69
2019-05-14T01:18:58.642Z,5.76
2019-05-14T01:21:31.041Z,5.75
2019-05-14T01:24:02.021Z,5.78
2019-05-14T01:26:32.307Z,5.67
2019-05-14T01:29:02.403Z,5.70
2019-05-14T01:31:32.517Z,5.66
2019-05-14T01:34:02.638Z,5.70
2019-05-14T01:36:32.822Z,5.79
2019-05-14T01:39:04.320Z,5.77
2019-05-14T01:41:34.495Z,5.76
2019-05-14T01:44:04.592Z,5.85
2019-05-14T01:46:34.717Z,5.87
2019-05-14T01:49:04.828Z,5.89
2019-05-14T01:51:34.979Z,5.87
2019-05-14T01:54:08.726Z,5.83
2019-05-14T01:56:38.915Z,5.90
2019-05-14T01:59:09.042Z,5.92
2019-05-14T02:01:41.479Z,6.03
2019-05-14T02:04:11.611Z,5.97
2019-05-14T02:06:42.061Z,6.06
2019-05-14T02:09:12.254Z,6.10
2019-05-14T02:11:42.372Z,6.13
2019-05-14T02:14:12.502Z,6.09
2019-05-14T02:16:42.603Z,6.15
2019-05-14T02:19:12.838Z,6.18
2019-05-14T02:21:42.994Z,6.20
2019-05-14T02:24:15.630Z,6.13
2019-05-14T02:26:47.988Z,6.16
2019-05-14T02:29:18.243Z,6.13
2019-05-14T02:31:50.387Z,6.02
2019-05-14T02:34:21.026Z,6.07
2019-05-14T02:36:51.163Z,6.10
2019-05-14T02:39:21.280Z,6.00
2019-05-14T02:41:52.191Z,6.00
2019-05-14T02:44:29.479Z,5.94
2019-05-14T02:47:01.335Z,5.98
2019-05-14T02:49:39.816Z,5.93
2019-05-14T02:52:11.024Z,5.98
2019-05-14T02:54:41.139Z,5.85
2019-05-14T02:57:11.236Z,5.90
2019-05-14T02:59:41.398Z,5.77
2019-05-14T03:02:11.795Z,5.76
2019-05-14T03:04:42.243Z,5.69
2019-05-14T03:07:19.171Z,5.71
2019-05-14T03:09:50.467Z,5.75
2019-05-14T03:12:23.272Z,5.73
2019-05-14T03:14:53.395Z,5.72
2019-05-14T03:17:23.480Z,5.78
2019-05-14T03:20:00.309Z,5.79
2019-05-14T03:22:46.223Z,5.81
2019-05-14T03:25:10.104Z,5.77
2019-05-14T03:27:41.167Z,5.80
2019-05-14T03:30:13.563Z,5.84
2019-05-14T03:32:44.030Z,5.85
2019-05-14T03:35:15.689Z,5.81
2019-05-14T03:37:51.279Z,5.72
2019-05-14T03:40:21.600Z,5.71
2019-05-14T03:42:52.238Z,5.81
2019-05-14T03:45:31.459Z,5.78
2019-05-14T03:48:03.895Z,5.72
2019-05-14T03:50:34.376Z,5.71
2019-05-14T03:53:05.559Z,5.73
2019-05-14T03:55:40.136Z,5.83
2019-05-14T03:58:09.884Z,5.81
2019-05-14T04:00:59.972Z,5.81
2019-05-14T04:03:39.841Z,5.89
2019-05-14T04:06:11.743Z,5.92
2019-05-14T04:08:42.945Z,6.02
2019-05-14T04:11:14.971Z,6.04
2019-05-14T04:13:54.766Z,6.03
2019-05-14T04:17:03.878Z,5.95
2019-05-14T04:19:24.243Z,6.03
2019-05-14T04:21:59.928Z,5.83
2019-05-14T04:24:36.725Z,5.86
2019-05-14T04:27:20.269Z,5.82
2019-05-14T04:29:59.745Z,5.80
2019-05-14T04:32:42.409Z,5.75
2019-05-14T04:35:12.848Z,5.74
2019-05-14T04:37:45.063Z,5.77
2019-05-14T04:40:18.714Z,5.71
2019-05-14T04:42:50.440Z,5.76
2019-05-14T04:45:21.177Z,5.77
2019-05-14T04:47:51.603Z,5.68
2019-05-14T04:50:25.683Z,5.72
2019-05-14T04:52:59.893Z,5.74
2019-05-14T04:55:31.063Z,5.79
2019-05-14T04:58:03.530Z,5.73
2019-05-14T05:00:38.916Z,5.70
2019-05-14T05:03:12.327Z,5.86
2019-05-14T05:05:40.104Z,5.79
2019-05-14T05:08:14.547Z,5.85
2019-05-14T05:10:44.101Z,5.82
2019-05-14T05:13:14.223Z,5.81
2019-05-14T05:15:44.342Z,5.77
2019-05-14T05:18:14.829Z,5.91
2019-05-14T05:20:45.947Z,6.06
2019-05-14T05:23:15.981Z,6.06
2019-05-14T05:25:46.187Z,6.12
2019-05-14T05:28:19.082Z,6.03
2019-05-14T05:30:49.250Z,6.16
2019-05-14T05:33:19.389Z,6.23
2019-05-14T05:35:49.511Z,6.19
2019-05-14T05:38:19.681Z,6.19
2019-05-14T05:40:49.823Z,6.27
2019-05-14T05:43:20.012Z,6.26
2019-05-14T05:45:50.200Z,6.35
2019-05-14T05:48:23.244Z,6.45
2019-05-14T05:50:53.368Z,6.47
2019-05-14T05:53:23.448Z,6.41
2019-05-14T05:55:53.608Z,6.43
2019-05-14T05:58:23.672Z,6.43
2019-05-14T06:00:58.773Z,6.57
2019-05-14T06:03:30.056Z,6.50
2019-05-14T06:06:01.027Z,6.69
2019-05-14T06:08:31.122Z,6.74
2019-05-14T06:11:01.246Z,6.88
2019-05-14T06:13:31.402Z,6.92
2019-05-14T06:16:01.522Z,6.99
2019-05-14T06:18:34.303Z,7.08
2019-05-14T06:21:03.471Z,7.20
2019-05-14T06:23:33.632Z,7.20
2019-05-14T06:26:04.204Z,7.25
2019-05-14T06:28:34.343Z,7.35
2019-05-14T06:31:09.581Z,7.38
2019-05-14T06:33:49.129Z,7.44
2019-05-14T06:36:21.864Z,7.58
2019-05-14T06:38:52.483Z,7.71
2019-05-14T06:41:39.872Z,7.78
2019-05-14T06:44:09.191Z,7.83
2019-05-14T06:46:41.500Z,7.90
2019-05-14T06:49:11.799Z,7.90
2019-05-14T06:51:41.910Z,7.93
2019-05-14T06:54:12.387Z,8.06
2019-05-14T06:56:42.617Z,8.15
2019-05-14T06:59:12.974Z,8.21
2019-05-14T07:01:44.182Z,8.29
2019-05-14T07:07:04.749Z,8.58
2019-05-14T07:09:34.923Z,8.66
2019-05-14T07:12:05.182Z,8.62
2019-05-14T07:14:35.842Z,8.67
2019-05-14T07:17:08.844Z,8.73
2019-05-14T07:19:39.042Z,8.78
2019-05-14T07:22:11.549Z,8.86
2019-05-14T07:24:42.721Z,8.88
2019-05-14T07:27:13.495Z,8.98
2019-05-14T07:29:43.854Z,9.05
2019-05-14T07:32:15.575Z,9.11
2019-05-14T07:34:48.035Z,9.16
2019-05-14T07:37:18.461Z,9.21
2019-05-14T07:39:49.155Z,9.29
2019-05-14T07:42:34.602Z,9.30
2019-05-14T07:45:09.989Z,9.41
2019-05-14T07:47:41.630Z,9.49
2019-05-14T07:50:13.796Z,9.62
2019-05-14T07:52:45.632Z,9.68
2019-05-14T07:55:18.352Z,9.75
2019-05-14T07:57:48.255Z,9.84
2019-05-14T08:00:19.246Z,9.88
2019-05-14T08:02:51.088Z,9.93
2019-05-14T08:05:21.318Z,10.05
2019-05-14T08:07:51.468Z,10.18
2019-05-14T08:10:22.213Z,10.23
2019-05-14T08:12:53.522Z,10.25
2019-05-14T08:15:25.238Z,10.32
2019-05-14T08:17:58.643Z,10.41
2019-05-14T08:20:28.800Z,10.42
2019-05-14T08:22:59.037Z,10.45
2019-05-14T08:25:29.221Z,10.43
2019-05-14T08:27:59.669Z,10.51
2019-05-14T08:30:31.650Z,10.53
2019-05-14T08:33:02.329Z,10.67
2019-05-14T08:35:34.109Z,10.83
2019-05-14T08:38:08.379Z,11.14
2019-05-14T08:40:38.212Z,11.47
2019-05-14T08:43:08.668Z,11.64
2019-05-14T08:45:39.315Z,11.72
2019-05-14T08:48:10.096Z,11.75
2019-05-14T08:50:40.274Z,12.08
2019-05-14T08:53:10.441Z,12.25
2019-05-14T08:55:40.663Z,12.58
2019-05-14T08:58:13.787Z,12.72
2019-05-14T09:00:43.920Z,13.12
2019-05-14T09:03:14.389Z,13.37
2019-05-14T09:05:44.639Z,13.75
2019-05-14T09:08:15.190Z,13.63
2019-05-14T09:10:45.379Z,13.38
2019-05-14T09:13:18.207Z,13.59
2019-05-14T09:15:48.974Z,13.64
2019-05-14T09:18:19.975Z,13.63
2019-05-14T09:20:50.133Z,13.34
2019-05-14T09:23:20.409Z,13.29
2019-05-14T09:25:53.317Z,13.24
2019-05-14T09:28:28.507Z,13.21
2019-05-14T09:30:59.883Z,13.23
2019-05-14T09:33:30.255Z,13.22
2019-05-14T09:36:14.710Z,13.45
2019-05-14T09:38:34.305Z,13.57
2019-05-14T09:41:11.083Z,13.92
2019-05-14T09:43:39.020Z,13.98
2019-05-14T09:46:09.151Z,13.95
2019-05-14T09:48:39.450Z,13.27
2019-05-14T09:51:09.592Z,13.29
2019-05-14T09:53:42.051Z,13.53
2019-05-14T09:56:12.246Z,13.54
2019-05-14T09:58:45.084Z,13.51
2019-05-14T10:01:15.823Z,13.84
2019-05-14T10:03:46.054Z,13.96
2019-05-14T10:06:16.224Z,14.26
2019-05-14T10:08:48.606Z,14.64
2019-05-14T10:11:18.363Z,14.81
2019-05-14T10:13:48.610Z,15.06
2019-05-14T10:16:19.171Z,15.25
2019-05-14T10:18:52.723Z,15.33
2019-05-14T10:21:21.361Z,15.16
2019-05-14T10:23:51.653Z,14.86
2019-05-14T10:26:24.864Z,14.78
2019-05-14T10:28:54.932Z,15.09
2019-05-14T10:31:25.453Z,14.92
2019-05-14T10:33:55.865Z,14.87
2019-05-14T10:36:29.790Z,14.28
2019-05-14T10:38:59.000Z,14.30
2019-05-14T10:41:29.363Z,14.31
2019-05-14T10:43:59.773Z,14.04
2019-05-14T10:46:30.995Z,14.14
2019-05-14T10:49:16.511Z,14.03
2019-05-14T10:51:32.955Z,14.19
2019-05-14T10:54:21.101Z,14.49
2019-05-14T10:56:38.005Z,14.52
2019-05-14T10:59:09.497Z,14.25
2019-05-14T11:01:39.809Z,13.97
2019-05-14T11:04:10.058Z,13.91
2019-05-14T11:06:40.274Z,14.02
2019-05-14T11:09:11.522Z,14.09
2019-05-14T11:11:41.975Z,14.04
2019-05-14T11:14:12.063Z,13.89
2019-05-14T11:16:43.355Z,13.79
2019-05-14T11:19:14.505Z,14.07
2019-05-14T11:21:45.367Z,14.28
2019-05-14T11:24:15.593Z,14.31
2019-05-14T11:26:48.551Z,14.26
2019-05-14T11:29:18.554Z,14.27
2019-05-14T11:31:49.164Z,13.90
2019-05-14T11:34:23.287Z,14.06
2019-05-14T11:36:58.727Z,13.96
2019-05-14T11:39:28.952Z,13.97
2019-05-14T11:42:00.986Z,13.84
2019-05-14T11:44:32.232Z,13.83
2019-05-14T11:47:02.904Z,13.92
2019-05-14T11:49:34.211Z,13.75
2019-05-14T11:52:08.633Z,13.71
2019-05-14T11:54:40.915Z,13.67
2019-05-14T11:57:11.686Z,13.59
2019-05-14T11:59:41.716Z,13.79
2019-05-14T12:02:13.175Z,13.89
2019-05-14T12:04:43.361Z,14.14
2019-05-14T12:07:13.670Z,14.51
2019-05-14T12:09:43.849Z,14.63
2019-05-14T12:12:14.592Z,14.71
2019-05-14T12:14:48.840Z,14.48
2019-05-14T12:17:22.019Z,14.25
2019-05-14T12:19:52.163Z,14.20
2019-05-14T12:22:23.792Z,14.35
2019-05-14T12:24:53.945Z,14.61
2019-05-14T12:27:24.196Z,14.83
2019-05-14T12:29:54.327Z,15.08
2019-05-14T12:32:24.489Z,15.61
2019-05-14T12:34:54.674Z,15.76
2019-05-14T12:37:28.922Z,15.55
2019-05-14T12:40:02.519Z,15.27
2019-05-14T12:42:32.936Z,15.07
2019-05-14T12:45:03.666Z,14.87
2019-05-14T12:47:34.215Z,15.03
2019-05-14T12:50:05.468Z,15.48
2019-05-14T12:52:35.888Z,15.88
2019-05-14T12:55:09.643Z,15.91
2019-05-14T12:57:39.942Z,15.66
2019-05-14T13:00:10.602Z,15.68
2019-05-14T13:02:40.963Z,15.44
2019-05-14T13:05:11.252Z,15.09
2019-05-14T13:07:41.912Z,15.24
2019-05-14T13:10:12.211Z,15.35
2019-05-14T13:12:42.342Z,15.44
2019-05-14T13:15:12.868Z,15.64
2019-05-14T13:17:43.024Z,16.01
2019-05-14T13:20:14.090Z,15.98
2019-05-14T13:22:46.532Z,16.30
2019-05-14T13:25:18.784Z,16.87
2019-05-14T13:27:49.514Z,17.21
2019-05-14T13:30:19.755Z,17.22
2019-05-14T13:32:51.128Z,16.77
2019-05-14T13:35:24.094Z,15.77
2019-05-14T13:37:54.902Z,15.42
2019-05-14T13:40:24.950Z,15.52
2019-05-14T13:42:55.268Z,15.33
2019-05-14T13:45:25.455Z,15.04
2019-05-14T13:47:55.676Z,14.99
2019-05-14T13:50:29.051Z,15.22
2019-05-14T13:53:02.944Z,15.34
2019-05-14T13:55:30.701Z,15.48
2019-05-14T13:58:01.260Z,15.54
2019-05-14T14:00:40.858Z,15.56
2019-05-14T14:03:12.138Z,15.50
2019-05-14T14:05:42.355Z,15.70
2019-05-14T14:08:14.247Z,15.63
2019-05-14T14:10:46.548Z,15.65
2019-05-14T14:13:20.060Z,15.73
2019-05-14T14:16:00.549Z,15.83
2019-05-14T14:18:31.732Z,16.30
2019-05-14T14:21:01.885Z,16.42
2019-05-14T14:23:32.109Z,16.06
2019-05-14T14:26:02.314Z,15.83
2019-05-14T14:28:32.503Z,16.01
2019-05-14T14:31:02.647Z,16.03
2019-05-14T14:33:34.457Z,16.21
2019-05-14T14:36:05.666Z,16.43
2019-05-14T14:38:36.235Z,16.43
2019-05-14T14:41:11.630Z,15.91
2019-05-14T14:44:00.724Z,16.40
2019-05-14T14:46:30.852Z,16.73
2019-05-14T14:49:03.321Z,16.64
2019-05-14T14:51:41.849Z,16.87
2019-05-14T14:54:16.180Z,16.94
2019-05-14T14:56:45.768Z,16.45
2019-05-14T14:59:18.920Z,16.16
2019-05-14T15:01:50.272Z,15.69
2019-05-14T15:04:20.659Z,15.64
2019-05-14T15:06:51.419Z,15.72
2019-05-14T15:09:21.893Z,15.52
2019-05-14T15:11:52.874Z,16.23
2019-05-14T15:14:23.092Z,17.43
2019-05-14T15:16:54.139Z,18.90
2019-05-14T15:19:25.532Z,20.16
2019-05-14T15:21:59.426Z,20.74
2019-05-14T15:24:39.911Z,20.53
2019-05-14T15:27:23.913Z,20.50
2019-05-14T15:29:52.987Z,21.62
2019-05-14T15:32:31.155Z,20.97
2019-05-14T15:35:02.735Z,20.25
2019-05-14T15:37:32.961Z,19.39
2019-05-14T15:40:11.214Z,18.67
2019-05-14T15:42:41.958Z,18.09
2019-05-14T15:45:13.004Z,17.22
2019-05-14T15:47:43.411Z,16.62
2019-05-14T15:50:20.045Z,16.59
2019-05-14T15:52:51.346Z,17.03
2019-05-14T15:55:21.943Z,16.79
2019-05-14T15:57:54.524Z,17.32
2019-05-14T16:00:29.012Z,18.44
2019-05-14T16:03:00.251Z,19.71
2019-05-14T16:05:30.667Z,20.83
2019-05-14T16:08:00.838Z,20.41
2019-05-14T16:10:35.874Z,21.39
2019-05-14T16:13:14.619Z,21.33
2019-05-14T16:15:44.975Z,21.02
2019-05-14T16:18:19.759Z,20.96
2019-05-14T16:20:49.915Z,21.45
2019-05-14T16:23:21.284Z,21.55
2019-05-14T16:25:51.527Z,22.29
2019-05-14T16:28:21.770Z,22.29
2019-05-14T16:30:53.340Z,23.23
2019-05-14T16:33:29.699Z,23.23
2019-05-14T16:36:00.071Z,23.70
2019-05-14T16:38:30.448Z,22.92
2019-05-14T16:41:01.259Z,22.03
2019-05-14T16:43:32.550Z,22.25
2019-05-14T16:46:03.193Z,22.42
2019-05-14T16:48:36.295Z,21.43
2019-05-14T16:51:08.711Z,20.80
2019-05-14T16:53:38.568Z,21.62
2019-05-14T16:56:08.837Z,21.92
2019-05-14T16:58:39.030Z,21.55
2019-05-14T17:01:10.096Z,21.55
2019-05-14T17:03:43.166Z,20.34
2019-05-14T17:06:13.447Z,19.51
2019-05-14T17:08:43.933Z,19.05
2019-05-14T17:11:14.387Z,19.13
2019-05-14T17:13:44.731Z,19.76
2019-05-14T17:16:19.291Z,20.85
2019-05-14T17:18:54.197Z,21.16
2019-05-14T17:21:25.887Z,21.72
2019-05-14T17:23:58.104Z,21.98
2019-05-14T17:26:28.731Z,21.28
2019-05-14T17:28:59.762Z,20.78
2019-05-14T17:31:39.579Z,20.41
2019-05-14T17:34:11.561Z,20.58
2019-05-14T17:36:41.761Z,20.92
2019-05-14T17:39:12.089Z,20.24
2019-05-14T17:41:42.314Z,19.27
2019-05-14T17:44:12.528Z,17.88
2019-05-14T17:46:43.832Z,17.40
2019-05-14T17:49:19.985Z,17.24
2019-05-14T17:51:50.276Z,16.56
2019-05-14T17:54:20.552Z,16.37
2019-05-14T17:56:50.731Z,15.78
2019-05-14T17:59:20.893Z,15.71
2019-05-14T18:01:52.621Z,15.78
2019-05-14T18:04:28.570Z,15.70
2019-05-14T18:06:59.317Z,15.53
2019-05-14T18:09:29.565Z,15.54
2019-05-14T18:12:00.098Z,15.47
2019-05-14T18:14:33.115Z,15.46
2019-05-14T18:17:05.751Z,15.29
2019-05-14T18:19:37.958Z,15.36
2019-05-14T18:22:09.480Z,15.25
2019-05-14T18:24:41.010Z,14.82
2019-05-14T18:27:11.420Z,14.60
2019-05-14T18:29:41.929Z,14.71
2019-05-14T18:32:16.417Z,14.59
2019-05-14T18:34:49.642Z,14.53
2019-05-14T18:37:19.990Z,14.33
2019-05-14T18:39:50.268Z,14.20
2019-05-14T18:42:20.521Z,14.12
2019-05-14T18:44:53.608Z,14.07
2019-05-14T18:47:29.005Z,13.91
2019-05-14T18:50:05.091Z,13.90
2019-05-14T18:52:39.972Z,13.81
2019-05-14T18:55:12.032Z,13.82
2019-05-14T18:57:42.555Z,13.75
2019-05-14T19:00:20.383Z,13.57
2019-05-14T19:02:53.504Z,13.53
2019-05-14T19:05:25.813Z,13.44
2019-05-14T19:07:59.219Z,13.26
2019-05-14T19:10:29.494Z,13.15
2019-05-14T19:13:00.547Z,13.17
2019-05-14T19:15:30.729Z,13.17
2019-05-14T19:18:09.100Z,12.97
2019-05-14T19:20:39.464Z,12.91
2019-05-14T19:23:09.756Z,12.89
2019-05-14T19:25:40.021Z,12.70
2019-05-14T19:28:10.800Z,12.68
2019-05-14T19:30:42.491Z,12.56
2019-05-14T19:33:12.895Z,12.53
2019-05-14T19:35:45.412Z,12.49
2019-05-14T19:38:17.966Z,12.45
2019-05-14T19:40:48.508Z,12.34
2019-05-14T19:43:19.206Z,12.26
2019-05-14T19:45:49.412Z,12.21
2019-05-14T19:48:19.663Z,12.19
2019-05-14T19:50:49.906Z,12.08
2019-05-14T19:53:20.296Z,11.99
2019-05-14T19:55:50.651Z,11.90
2019-05-14T19:58:20.972Z,11.83
2019-05-14T20:00:51.132Z,11.81
2019-05-14T20:03:21.686Z,11.76
2019-05-14T20:05:52.125Z,11.64
2019-05-14T20:08:22.466Z,11.61
2019-05-14T20:10:52.772Z,11.66
2019-05-14T20:13:23.261Z,11.55
2019-05-14T20:15:55.397Z,11.47
2019-05-14T20:18:25.830Z,11.26
2019-05-14T20:20:59.146Z,11.31
2019-05-14T20:23:29.535Z,11.32
2019-05-14T20:25:59.863Z,11.23
2019-05-14T20:28:30.076Z,11.20
2019-05-14T20:31:00.320Z,11.13
2019-05-14T20:33:30.499Z,11.05
2019-05-14T20:36:03.345Z,11.05
2019-05-14T20:38:33.670Z,10.98
2019-05-14T20:41:03.859Z,10.91
2019-05-14T20:43:34.011Z,10.92
2019-05-14T20:46:04.160Z,10.81
2019-05-14T20:48:39.048Z,10.74
2019-05-14T20:51:09.108Z,10.62
2019-05-14T20:53:39.795Z,10.64
2019-05-14T20:56:10.010Z,10.63
2019-05-14T20:58:40.242Z,10.64
2019-05-14T21:01:11.356Z,10.50
2019-05-14T21:03:44.045Z,10.26
2019-05-14T21:06:13.814Z,10.26
2019-05-14T21:08:44.001Z,10.26
2019-05-14T21:11:14.233Z,10.30
2019-05-14T21:13:44.551Z,10.29
2019-05-14T21:16:18.148Z,10.20
2019-05-14T21:18:48.817Z,10.15
2019-05-14T21:21:19.125Z,9.91
2019-05-14T21:23:49.437Z,9.94
2019-05-14T21:26:19.629Z,9.89
2019-05-14T21:28:49.822Z,10.02
2019-05-14T21:31:20.077Z,9.97
2019-05-14T21:33:50.213Z,9.94
2019-05-14T21:36:20.479Z,9.63
2019-05-14T21:38:50.665Z,9.74
2019-05-14T21:41:21.000Z,9.69
2019-05-14T21:43:51.183Z,9.71
2019-05-14T21:46:21.376Z,9.61
2019-05-14T21:48:51.760Z,9.53
2019-05-14T21:51:22.064Z,9.53
2019-05-14T21:53:52.281Z,9.51
2019-05-14T21:56:22.454Z,9.47
2019-05-14T21:58:52.628Z,9.31
2019-05-14T22:01:22.877Z,9.32
2019-05-14T22:03:59.139Z,9.09
2019-05-14T22:06:29.918Z,9.08
2019-05-14T22:09:00.030Z,9.09
2019-05-14T22:11:30.187Z,9.12
2019-05-14T22:14:00.353Z,8.96
2019-05-14T22:16:30.582Z,9.04
2019-05-14T22:19:00.767Z,9.03
2019-05-14T22:21:30.969Z,8.96
2019-05-14T22:24:01.610Z,8.83
2019-05-14T22:26:31.781Z,8.87
2019-05-14T22:29:01.962Z,8.85
2019-05-14T22:31:32.130Z,8.79
2019-05-14T22:34:02.279Z,8.68
2019-05-14T22:36:34.793Z,8.62
2019-05-14T22:39:06.697Z,8.69
2019-05-14T22:41:38.316Z,8.56
2019-05-14T22:44:09.552Z,8.54
2019-05-14T22:46:40.292Z,8.49
2019-05-14T22:49:11.851Z,8.41
2019-05-14T22:51:42.045Z,8.43
2019-05-14T22:54:12.183Z,8.42
2019-05-14T22:56:42.302Z,8.33
2019-05-14T22:59:12.460Z,8.26
2019-05-14T23:01:42.622Z,8.23
2019-05-14T23:04:12.823Z,8.08
2019-05-14T23:06:42.990Z,8.15
2019-05-14T23:09:16.237Z,8.08
2019-05-14T23:11:48.018Z,8.07
2019-05-14T23:14:18.612Z,8.09
2019-05-14T23:16:49.224Z,8.01
2019-05-14T23:19:19.374Z,7.83
2019-05-14T23:21:49.554Z,7.99
2019-05-14T23:24:19.703Z,7.97
2019-05-14T23:26:49.885Z,7.92
2019-05-14T23:29:20.081Z,7.87
2019-05-14T23:31:50.276Z,7.87
2019-05-14T23:34:20.498Z,7.82
2019-05-14T23:36:50.619Z,7.82
2019-05-14T23:39:22.072Z,7.77
2019-05-14T23:41:52.430Z,7.72
2019-05-14T23:44:22.662Z,7.64
2019-05-14T23:46:52.841Z,7.65
2019-05-14T23:49:23.020Z,7.63
2019-05-14T23:51:53.225Z,7.56
2019-05-14T23:54:23.818Z,7.52
2019-05-14T23:56:53.969Z,7.50
2019-05-14T23:59:25.181Z,7.43
